Terminal Aerodrome Forecast
Issued by NWS Omaha/Valley, NE

Home | Current Version | Previous Version | Graphics & Text | Print | Product List | Glossary On
Versions: 1 2 3 4 5 6 7 8 9 10 11 12 13 14 15 16 17 18 19 20 21 22 23 24 25 26 27 28 29 30 31 32 33 34 35 36 37 38 39 40 41 42 43 44
000
FTUS43 KOAX 230527
TAFOFK
TAF
KOFK 230527Z 2306/2406 01011KT P6SM SKC
     FM231500 03010KT P6SM OVC050
     FM231800 06016G24KT P6SM OVC035 PROB30 2321/2402 5SM -RA OVC020
     FM240200 02019G26KT 2SM -RASN BR OVC007 PROB30 2402/2406 2SM
      -SN OVC004=

USA.gov is the U.S. government's official web portal to all federal, state and local government web resources and services.